createdAt,value
2019-02-21T00:01:35.448Z,10.43
2019-02-21T00:04:04.681Z,11.17
2019-02-21T00:06:33.257Z,11.40
2019-02-21T00:09:01.803Z,11.60
2019-02-21T00:11:30.367Z,10.83
2019-02-21T00:13:59.873Z,11.20
2019-02-21T00:16:28.407Z,11.27
2019-02-21T00:18:56.947Z,10.90
2019-02-21T00:21:25.515Z,11.60
2019-02-21T00:23:54.086Z,12.07
2019-02-21T00:26:22.648Z,10.37
2019-02-21T00:28:53.893Z,10.50
2019-02-21T00:31:22.719Z,11.10
2019-02-21T00:33:51.266Z,10.53
2019-02-21T00:36:21.270Z,10.27
2019-02-21T00:38:49.749Z,10.03
2019-02-21T00:41:18.362Z,11.07
2019-02-21T00:43:46.943Z,10.43
2019-02-21T00:46:15.474Z,10.23
2019-02-21T00:48:44.065Z,10.37
2019-02-21T00:51:14.187Z,10.03
2019-02-21T00:53:45.553Z,9.93
2019-02-21T00:56:14.073Z,10.27
2019-02-21T00:58:42.942Z,10.23
2019-02-21T01:01:11.567Z,10.63
2019-02-21T01:03:40.152Z,10.33
2019-02-21T01:06:08.705Z,10.80
2019-02-21T01:08:37.291Z,10.20
2019-02-21T01:11:06.180Z,11.00
2019-02-21T01:13:37.682Z,11.03
2019-02-21T01:16:06.267Z,10.90
2019-02-21T01:18:38.365Z,12.03
2019-02-21T01:21:06.859Z,11.50
2019-02-21T01:23:36.424Z,11.80
2019-02-21T01:26:05.003Z,11.70
2019-02-21T01:28:33.533Z,12.30
2019-02-21T01:31:02.128Z,11.57
2019-02-21T01:33:30.678Z,12.20
2019-02-21T01:35:59.568Z,11.50
2019-02-21T01:38:28.138Z,11.60
2019-02-21T01:40:56.694Z,11.40
2019-02-21T01:43:25.262Z,11.40
2019-02-21T01:45:56.618Z,11.70
2019-02-21T01:48:26.758Z,11.07
2019-02-21T01:50:56.865Z,11.10
2019-02-21T01:53:26.981Z,11.50
2019-02-21T01:55:55.529Z,11.47
2019-02-21T01:58:27.388Z,10.83
2019-02-21T02:00:56.054Z,11.10
2019-02-21T02:03:27.652Z,10.50
2019-02-21T02:05:56.155Z,10.67
2019-02-21T02:08:24.932Z,10.20
2019-02-21T02:10:53.480Z,11.13
2019-02-21T02:13:24.854Z,10.37
2019-02-21T02:15:52.304Z,10.60
2019-02-21T02:18:20.850Z,10.83
2019-02-21T02:20:50.446Z,10.57
2019-02-21T02:23:18.993Z,10.60
2019-02-21T02:25:47.481Z,10.90
2019-02-21T02:28:16.040Z,10.90
2019-02-21T02:30:44.639Z,10.33
2019-02-21T02:33:13.196Z,11.40
2019-02-21T02:35:41.744Z,11.10
2019-02-21T02:38:10.301Z,11.63
2019-02-21T02:40:38.854Z,10.60
2019-02-21T02:43:07.502Z,10.87
2019-02-21T02:45:36.048Z,11.23
2019-02-21T02:48:04.686Z,10.70
2019-02-21T02:50:33.283Z,10.73
2019-02-21T02:53:01.894Z,11.10
2019-02-21T02:55:30.417Z,11.27
2019-02-21T02:57:58.957Z,10.40
2019-02-21T03:00:27.509Z,11.07
2019-02-21T03:02:56.082Z,10.97
2019-02-21T03:05:24.628Z,11.27
2019-02-21T03:07:53.174Z,10.47
2019-02-21T03:10:21.751Z,11.23
2019-02-21T03:12:50.294Z,10.17
2019-02-21T03:15:21.620Z,9.87
2019-02-21T03:17:53.187Z,9.87
2019-02-21T03:20:22.233Z,10.57
2019-02-21T03:22:50.795Z,10.13
2019-02-21T03:25:22.092Z,10.50
2019-02-21T03:27:53.583Z,10.77
2019-02-21T03:30:22.132Z,10.60
2019-02-21T03:32:50.702Z,10.80
2019-02-21T03:35:20.962Z,10.07
2019-02-21T03:37:52.174Z,11.00
2019-02-21T03:40:20.811Z,10.73
2019-02-21T03:42:49.295Z,9.87
2019-02-21T03:45:17.977Z,10.60
2019-02-21T03:47:46.565Z,10.37
2019-02-21T03:50:15.249Z,10.37
2019-02-21T03:52:48.451Z,10.40
2019-02-21T03:55:21.844Z,10.80
2019-02-21T03:57:50.907Z,10.90
2019-02-21T04:00:19.533Z,10.00
2019-02-21T04:02:48.091Z,10.00
2019-02-21T04:05:16.653Z,10.60
2019-02-21T04:07:45.221Z,10.83
2019-02-21T04:10:13.831Z,10.57
2019-02-21T04:12:42.387Z,10.03
2019-02-21T04:15:12.655Z,9.87
2019-02-21T04:17:42.917Z,10.97
2019-02-21T04:20:11.513Z,10.27
2019-02-21T04:22:40.086Z,11.00
2019-02-21T04:25:08.646Z,10.93
2019-02-21T04:27:37.229Z,11.17
2019-02-21T04:30:07.837Z,10.17
2019-02-21T04:32:36.380Z,11.40
2019-02-21T04:35:05.702Z,10.87
2019-02-21T04:37:34.258Z,10.80
2019-02-21T04:40:02.850Z,10.83
2019-02-21T04:42:31.396Z,10.50
2019-02-21T04:45:01.573Z,10.90
2019-02-21T04:47:30.176Z,10.33
2019-02-21T04:49:58.715Z,10.13
2019-02-21T04:52:27.309Z,11.27
2019-02-21T04:54:55.866Z,10.67
2019-02-21T04:57:24.414Z,11.57
2019-02-21T04:59:52.978Z,11.03
2019-02-21T05:02:29.057Z,10.50
2019-02-21T05:04:51.720Z,10.50
2019-02-21T05:07:20.208Z,10.50
2019-02-21T05:09:57.924Z,10.23
2019-02-21T05:12:21.958Z,10.20
2019-02-21T05:14:50.537Z,10.67
2019-02-21T05:17:19.111Z,10.67
2019-02-21T05:19:47.670Z,11.43
2019-02-21T05:22:16.243Z,10.40
2019-02-21T05:24:44.813Z,10.70
2019-02-21T05:27:15.002Z,10.23
2019-02-21T05:29:43.654Z,10.57
2019-02-21T05:32:13.820Z,11.43
2019-02-21T05:34:49.744Z,11.87
2019-02-21T05:37:22.895Z,13.13
2019-02-21T05:40:09.058Z,11.93
2019-02-21T05:42:54.269Z,12.60
2019-02-21T05:45:42.181Z,12.40
2019-02-21T05:48:18.199Z,12.37
2019-02-21T05:50:55.493Z,12.10
2019-02-21T05:53:43.883Z,11.83
2019-02-21T05:56:14.130Z,11.50
2019-02-21T05:59:00.656Z,11.37
2019-02-21T06:01:34.871Z,11.87
2019-02-21T06:04:07.538Z,11.03
2019-02-21T06:06:38.498Z,12.00
2019-02-21T06:09:09.484Z,11.90
2019-02-21T06:11:48.081Z,12.20
2019-02-21T06:14:29.391Z,11.70
2019-02-21T06:17:02.568Z,12.67
2019-02-21T06:19:41.871Z,11.73
2019-02-21T06:22:27.968Z,11.40
2019-02-21T06:25:01.134Z,12.13
2019-02-21T06:27:38.095Z,12.50
2019-02-21T06:30:10.061Z,12.03
2019-02-21T06:32:40.714Z,12.30
2019-02-21T06:35:09.795Z,13.03
2019-02-21T06:37:40.177Z,12.23
2019-02-21T06:40:11.670Z,12.63
2019-02-21T06:42:41.755Z,13.20
2019-02-21T06:45:10.478Z,11.53
2019-02-21T06:47:41.994Z,12.57
2019-02-21T06:50:10.547Z,13.30
2019-02-21T06:52:40.842Z,12.47
2019-02-21T06:55:12.399Z,13.10
2019-02-21T06:57:40.967Z,14.00
2019-02-21T07:00:15.337Z,12.83
2019-02-21T07:02:43.886Z,12.80
2019-02-21T07:05:12.466Z,13.17
2019-02-21T07:07:41.030Z,13.43
2019-02-21T07:10:09.619Z,12.70
2019-02-21T07:12:38.196Z,12.57
2019-02-21T07:15:09.829Z,13.03
2019-02-21T07:17:48.534Z,13.07
2019-02-21T07:20:09.272Z,13.13
2019-02-21T07:22:37.812Z,12.50
2019-02-21T07:25:10.953Z,12.77
2019-02-21T07:27:43.734Z,13.57
2019-02-21T07:30:19.616Z,13.13
2019-02-21T07:32:42.638Z,12.50
2019-02-21T07:35:11.244Z,13.50
2019-02-21T07:37:42.938Z,13.27
2019-02-21T07:40:19.834Z,14.00
2019-02-21T07:42:48.182Z,13.70
2019-02-21T07:45:16.856Z,13.30
2019-02-21T07:47:45.431Z,13.53
2019-02-21T07:50:13.989Z,13.63
2019-02-21T07:52:42.544Z,12.80
2019-02-21T07:55:11.356Z,14.60
2019-02-21T07:57:41.442Z,13.93
2019-02-21T08:00:12.335Z,14.70
2019-02-21T08:02:43.688Z,14.73
2019-02-21T08:05:12.636Z,15.40
2019-02-21T08:07:43.196Z,15.33
2019-02-21T08:10:12.510Z,14.67
2019-02-21T08:12:43.708Z,15.43
2019-02-21T08:15:13.135Z,14.87
2019-02-21T08:17:41.697Z,13.97
2019-02-21T08:20:11.833Z,15.00
2019-02-21T08:22:40.380Z,14.67
2019-02-21T08:25:10.501Z,14.97
2019-02-21T08:27:39.104Z,15.73
2019-02-21T08:30:10.981Z,14.43
2019-02-21T08:32:57.460Z,14.50
2019-02-21T08:35:26.034Z,14.17
2019-02-21T08:37:59.627Z,14.63
2019-02-21T08:40:30.957Z,14.00
2019-02-21T08:43:04.081Z,14.70
2019-02-21T08:45:37.066Z,15.03
2019-02-21T08:48:05.937Z,14.77
2019-02-21T08:50:37.162Z,15.43
2019-02-21T08:53:05.747Z,15.43
2019-02-21T08:55:34.421Z,15.70
2019-02-21T08:58:07.985Z,15.20
2019-02-21T09:00:36.714Z,15.23
2019-02-21T09:03:05.333Z,16.77
2019-02-21T09:05:34.068Z,16.00
2019-02-21T09:08:02.629Z,15.97
2019-02-21T09:10:31.201Z,16.47
2019-02-21T09:13:07.471Z,15.53
2019-02-21T09:15:46.348Z,15.90
2019-02-21T09:18:15.659Z,16.30
2019-02-21T09:20:47.769Z,15.97
2019-02-21T09:23:15.952Z,15.90
2019-02-21T09:25:44.501Z,16.27
2019-02-21T09:28:15.518Z,16.47
2019-02-21T09:30:43.297Z,16.20
2019-02-21T09:33:17.537Z,16.30
2019-02-21T09:35:44.128Z,16.00
2019-02-21T09:38:14.149Z,16.60
2019-02-21T09:40:49.221Z,17.67
2019-02-21T09:43:17.846Z,17.10
2019-02-21T09:45:49.204Z,17.53
2019-02-21T09:48:42.490Z,17.50
2019-02-21T09:51:11.055Z,18.23
2019-02-21T09:53:41.348Z,17.43
2019-02-21T09:56:12.615Z,17.37
2019-02-21T09:58:41.104Z,17.43
2019-02-21T10:01:23.784Z,19.00
2019-02-21T10:03:52.345Z,18.97
2019-02-21T10:06:20.895Z,20.43
2019-02-21T10:08:49.399Z,20.97
2019-02-21T10:11:19.478Z,18.13
2019-02-21T10:13:48.053Z,17.63
2019-02-21T10:16:19.648Z,19.23
2019-02-21T10:18:48.196Z,20.30
2019-02-21T10:21:16.679Z,19.03
2019-02-21T10:23:45.242Z,20.47
2019-02-21T10:26:16.970Z,18.93
2019-02-21T10:28:45.507Z,19.87
2019-02-21T10:31:14.092Z,17.30
2019-02-21T10:33:46.859Z,18.97
2019-02-21T10:36:12.873Z,18.27
2019-02-21T10:38:41.437Z,17.70
2019-02-21T10:41:09.976Z,21.37
2019-02-21T10:43:38.576Z,18.17
2019-02-21T10:46:07.138Z,19.50
2019-02-21T10:48:35.711Z,19.90
2019-02-21T10:51:04.295Z,18.53
2019-02-21T10:53:32.874Z,19.00
2019-02-21T10:56:01.403Z,18.33
2019-02-21T10:58:32.722Z,19.53
2019-02-21T11:01:04.290Z,17.70
2019-02-21T11:03:33.052Z,18.50
2019-02-21T11:06:01.665Z,18.90
2019-02-21T11:08:30.346Z,17.93
2019-02-21T11:10:58.912Z,16.87
2019-02-21T11:13:27.476Z,16.40
2019-02-21T11:15:56.031Z,15.67
2019-02-21T11:18:24.588Z,16.60
2019-02-21T11:20:53.128Z,16.07
2019-02-21T11:23:22.592Z,17.47
2019-02-21T11:25:51.289Z,18.07
2019-02-21T11:28:19.875Z,18.60
2019-02-21T11:30:48.446Z,20.00
2019-02-21T11:33:17.080Z,19.27
2019-02-21T11:35:45.691Z,16.53
2019-02-21T11:38:14.250Z,14.50
2019-02-21T11:40:42.909Z,13.73
2019-02-21T11:43:11.492Z,13.67
2019-02-21T11:45:40.122Z,13.90
2019-02-21T11:48:09.411Z,13.53
2019-02-21T11:50:37.930Z,14.13
2019-02-21T11:53:06.593Z,13.73
2019-02-21T11:55:35.232Z,13.17
2019-02-21T11:58:08.277Z,12.43
2019-02-21T12:00:38.465Z,13.53
2019-02-21T12:03:07.106Z,13.30
2019-02-21T12:05:35.677Z,13.10
2019-02-21T12:08:04.323Z,14.93
2019-02-21T12:10:32.888Z,14.67
2019-02-21T12:13:03.669Z,15.77
2019-02-21T12:15:32.037Z,15.73
2019-02-21T12:18:03.357Z,15.33
2019-02-21T12:20:35.922Z,14.87
2019-02-21T12:23:04.548Z,14.60
2019-02-21T12:25:33.107Z,15.57
2019-02-21T12:28:01.671Z,14.53
2019-02-21T12:30:34.549Z,15.70
2019-02-21T12:33:05.629Z,17.10
2019-02-21T12:35:37.294Z,15.87
2019-02-21T12:38:05.843Z,14.10
2019-02-21T12:40:37.342Z,15.60
2019-02-21T12:43:06.085Z,16.03
2019-02-21T12:45:34.649Z,14.23
2019-02-21T12:48:06.195Z,13.53
2019-02-21T12:50:43.938Z,13.07
2019-02-21T12:53:05.040Z,13.20
2019-02-21T12:55:33.624Z,12.07
2019-02-21T12:58:02.209Z,11.80
2019-02-21T13:00:30.800Z,11.17
2019-02-21T13:03:02.331Z,11.23
2019-02-21T13:05:40.588Z,10.83
2019-02-21T13:08:05.286Z,10.93
2019-02-21T13:10:34.967Z,10.43
2019-02-21T13:13:09.182Z,11.07
2019-02-21T13:15:38.251Z,12.17
2019-02-21T13:18:15.851Z,12.73
2019-02-21T13:20:39.793Z,12.00
2019-02-21T13:23:08.380Z,13.10
2019-02-21T13:25:37.012Z,12.83
2019-02-21T13:28:05.639Z,12.63
2019-02-21T13:30:34.247Z,13.37
2019-02-21T13:33:02.828Z,12.37
2019-02-21T13:35:31.408Z,11.80
2019-02-21T13:37:59.962Z,9.83
2019-02-21T13:40:28.519Z,9.63
2019-02-21T13:42:57.092Z,9.27
2019-02-21T13:45:25.671Z,9.10
2019-02-21T13:47:54.324Z,9.83
2019-02-21T13:50:23.844Z,9.03
2019-02-21T13:52:52.602Z,10.17
2019-02-21T13:55:21.374Z,9.50
2019-02-21T13:57:51.577Z,11.53
2019-02-21T14:00:23.769Z,11.17
2019-02-21T14:02:55.385Z,11.03
2019-02-21T14:05:23.921Z,11.57
2019-02-21T14:07:52.763Z,11.70
2019-02-21T14:10:21.328Z,11.70
2019-02-21T14:12:51.690Z,11.63
2019-02-21T14:15:30.441Z,12.93
2019-02-21T14:18:01.539Z,12.17
2019-02-21T14:20:30.147Z,12.83
2019-02-21T14:23:02.117Z,11.77
2019-02-21T14:25:40.371Z,11.50
2019-02-21T14:28:01.324Z,12.17
2019-02-21T14:30:32.638Z,12.60
2019-02-21T14:33:01.259Z,12.03
2019-02-21T14:35:45.119Z,13.07
2019-02-21T14:38:26.970Z,12.47
2019-02-21T14:40:45.707Z,12.80
2019-02-21T14:43:16.909Z,12.73
2019-02-21T14:45:44.485Z,13.33
2019-02-21T14:48:13.096Z,12.73
2019-02-21T14:50:44.342Z,12.30
2019-02-21T14:53:15.378Z,13.23
2019-02-21T14:55:47.293Z,13.30
2019-02-21T14:58:20.514Z,12.53
2019-02-21T15:00:57.874Z,13.67
2019-02-21T15:03:27.942Z,13.17
2019-02-21T15:06:00.976Z,12.60
2019-02-21T15:08:30.092Z,11.33
2019-02-21T15:11:08.093Z,12.37
2019-02-21T15:13:42.388Z,10.37
2019-02-21T15:16:10.951Z,11.50
2019-02-21T15:18:55.425Z,11.33
2019-02-21T15:21:26.903Z,10.40
2019-02-21T15:23:57.439Z,10.07
2019-02-21T15:26:26.039Z,11.53
2019-02-21T15:28:59.973Z,11.00
2019-02-21T15:32:11.121Z,11.33
2019-02-21T15:34:38.016Z,11.47
2019-02-21T15:37:07.702Z,11.87
2019-02-21T15:39:36.269Z,12.07
2019-02-21T15:42:09.119Z,12.63
2019-02-21T15:44:37.774Z,12.70
2019-02-21T15:47:06.347Z,12.33
2019-02-21T15:49:34.915Z,14.13
2019-02-21T15:52:03.501Z,12.80
2019-02-21T15:54:32.030Z,12.57
2019-02-21T15:57:00.623Z,13.43
2019-02-21T15:59:29.205Z,12.60
2019-02-21T16:01:57.754Z,13.20
2019-02-21T16:04:26.692Z,13.27
2019-02-21T16:06:57.941Z,12.70
2019-02-21T16:09:26.462Z,13.50
2019-02-21T16:11:55.038Z,12.77
2019-02-21T16:14:23.662Z,12.87
2019-02-21T16:16:52.278Z,12.77
2019-02-21T16:19:20.843Z,12.80
2019-02-21T16:21:49.398Z,12.70
2019-02-21T16:24:17.975Z,12.77
2019-02-21T16:26:46.634Z,12.50
2019-02-21T16:29:15.228Z,13.17
2019-02-21T16:31:47.925Z,13.17
2019-02-21T16:34:21.215Z,13.20
2019-02-21T16:37:02.157Z,13.47
2019-02-21T16:39:26.551Z,14.47
2019-02-21T16:42:03.746Z,14.23
2019-02-21T16:44:32.431Z,13.70
2019-02-21T16:47:01.094Z,14.03
2019-02-21T16:49:32.002Z,14.37
2019-02-21T16:52:01.054Z,14.77
2019-02-21T16:54:29.620Z,14.43
2019-02-21T16:56:58.203Z,15.70
2019-02-21T16:59:26.767Z,15.47
2019-02-21T17:01:55.487Z,15.53
2019-02-21T17:04:24.063Z,17.13
2019-02-21T17:06:55.588Z,15.13
2019-02-21T17:09:24.170Z,15.30
2019-02-21T17:11:52.719Z,15.60
2019-02-21T17:14:21.201Z,15.07
2019-02-21T17:16:49.953Z,15.30
2019-02-21T17:19:23.837Z,16.03
2019-02-21T17:21:58.854Z,15.90
2019-02-21T17:24:34.275Z,17.47
2019-02-21T17:27:03.529Z,17.90
2019-02-21T17:29:32.114Z,20.93
2019-02-21T17:32:00.671Z,16.00
2019-02-21T17:34:29.253Z,16.90
2019-02-21T17:36:57.849Z,15.60
2019-02-21T17:39:26.403Z,15.80
2019-02-21T17:41:55.006Z,15.23
2019-02-21T17:44:23.579Z,15.57
2019-02-21T17:46:52.146Z,16.03
2019-02-21T17:49:20.708Z,15.90
2019-02-21T17:51:49.255Z,16.37
2019-02-21T17:54:19.981Z,16.40
2019-02-21T17:56:53.437Z,17.70
2019-02-21T17:59:22.373Z,19.63
2019-02-21T18:01:50.990Z,19.30
2019-02-21T18:04:21.304Z,17.17
2019-02-21T18:06:49.983Z,16.90
2019-02-21T18:09:18.549Z,17.20
2019-02-21T18:11:47.128Z,17.20
2019-02-21T18:14:15.689Z,16.23
2019-02-21T18:16:44.461Z,16.50
2019-02-21T18:19:13.037Z,17.00
2019-02-21T18:21:41.947Z,19.23
2019-02-21T18:24:10.471Z,17.83
2019-02-21T18:26:39.691Z,17.20
2019-02-21T18:29:08.893Z,17.30
2019-02-21T18:31:51.648Z,16.47
2019-02-21T18:34:16.281Z,18.53
2019-02-21T18:36:44.836Z,16.63
2019-02-21T18:39:13.718Z,17.43
2019-02-21T18:41:43.270Z,18.23
2019-02-21T18:44:19.009Z,19.60
2019-02-21T18:46:47.638Z,18.63
2019-02-21T18:49:16.195Z,18.33
2019-02-21T18:51:44.796Z,18.53
2019-02-21T18:54:13.347Z,18.93
2019-02-21T18:56:41.914Z,20.13
2019-02-21T18:59:16.863Z,18.43
2019-02-21T19:01:45.770Z,17.30
2019-02-21T19:04:14.279Z,17.53
2019-02-21T19:06:42.831Z,18.20
2019-02-21T19:09:11.450Z,18.20
2019-02-21T19:11:40.143Z,18.10
2019-02-21T19:14:08.808Z,18.60
2019-02-21T19:16:37.396Z,19.10
2019-02-21T19:19:05.981Z,18.57
2019-02-21T19:21:34.549Z,18.77
2019-02-21T19:24:03.127Z,19.10
2019-02-21T19:26:31.849Z,18.20
2019-02-21T19:29:00.420Z,18.47
2019-02-21T19:31:28.985Z,18.33
2019-02-21T19:33:57.525Z,19.83
2019-02-21T19:36:26.110Z,18.07
2019-02-21T19:38:56.198Z,19.00
2019-02-21T19:41:26.330Z,19.50
2019-02-21T19:43:54.885Z,18.43
2019-02-21T19:46:25.147Z,19.83
2019-02-21T19:48:53.872Z,18.53
2019-02-21T19:51:22.504Z,18.83
2019-02-21T19:53:54.621Z,18.40
2019-02-21T19:56:23.174Z,18.97
2019-02-21T19:58:56.366Z,18.43
2019-02-21T20:01:25.030Z,18.67
2019-02-21T20:03:53.638Z,18.40
2019-02-21T20:06:22.210Z,18.60
2019-02-21T20:08:50.818Z,19.80
2019-02-21T20:11:19.434Z,19.07
2019-02-21T20:13:48.171Z,18.67
2019-02-21T20:16:17.724Z,19.10
2019-02-21T20:18:46.546Z,18.27
2019-02-21T20:21:15.064Z,18.87
2019-02-21T20:23:43.633Z,18.87
2019-02-21T20:26:18.320Z,19.13
2019-02-21T20:28:42.678Z,19.90
2019-02-21T20:31:11.414Z,19.40
2019-02-21T20:33:40.124Z,19.93
2019-02-21T20:36:08.782Z,20.10
2019-02-21T20:38:38.902Z,20.17
2019-02-21T20:41:08.994Z,19.50
2019-02-21T20:43:38.357Z,20.50
2019-02-21T20:46:06.982Z,19.20
2019-02-21T20:48:35.456Z,21.10
2019-02-21T20:51:04.198Z,20.93
2019-02-21T20:53:32.773Z,19.27
2019-02-21T20:56:01.716Z,19.17
2019-02-21T20:58:30.297Z,21.43
2019-02-21T21:00:58.885Z,20.60
2019-02-21T21:03:27.521Z,21.07
2019-02-21T21:05:56.089Z,21.93
2019-02-21T21:08:24.567Z,20.53
2019-02-21T21:10:53.172Z,21.03
2019-02-21T21:13:21.798Z,20.13
2019-02-21T21:15:50.362Z,21.23
2019-02-21T21:18:19.008Z,20.27
2019-02-21T21:20:47.552Z,20.07
2019-02-21T21:23:16.107Z,19.70
2019-02-21T21:25:44.711Z,19.27
2019-02-21T21:28:14.798Z,19.87
2019-02-21T21:30:43.355Z,19.57
2019-02-21T21:33:11.940Z,20.23
2019-02-21T21:35:43.273Z,18.73
2019-02-21T21:38:11.830Z,19.17
2019-02-21T21:40:40.549Z,19.60
2019-02-21T21:43:09.132Z,20.27
2019-02-21T21:45:40.506Z,19.13
2019-02-21T21:48:09.116Z,19.77
2019-02-21T21:50:37.659Z,19.40
2019-02-21T21:53:06.835Z,19.10
2019-02-21T21:55:40.981Z,18.43
2019-02-21T21:58:09.521Z,20.30
2019-02-21T22:00:38.172Z,20.23
2019-02-21T22:03:06.777Z,19.07
2019-02-21T22:05:35.351Z,20.43
2019-02-21T22:08:03.883Z,20.10
2019-02-21T22:10:32.445Z,20.43
2019-02-21T22:13:02.554Z,19.13
2019-02-21T22:15:35.392Z,19.83
2019-02-21T22:18:04.007Z,20.10
2019-02-21T22:20:32.626Z,20.97
2019-02-21T22:23:02.820Z,21.47
2019-02-21T22:25:33.875Z,21.67
2019-02-21T22:28:02.446Z,22.27
2019-02-21T22:30:31.011Z,21.23
2019-02-21T22:32:59.564Z,19.93
2019-02-21T22:35:28.157Z,21.00
2019-02-21T22:37:56.815Z,21.47
2019-02-21T22:40:25.363Z,20.50
2019-02-21T22:42:53.975Z,20.23
2019-02-21T22:45:22.524Z,20.13
2019-02-21T22:47:51.095Z,20.77
2019-02-21T22:50:20.222Z,20.17
2019-02-21T22:52:48.865Z,19.33
2019-02-21T22:55:17.485Z,20.57
2019-02-21T22:57:46.107Z,21.63
2019-02-21T23:00:30.924Z,20.27
2019-02-21T23:03:00.357Z,19.33
2019-02-21T23:05:43.969Z,19.80
2019-02-21T23:08:15.621Z,19.93
2019-02-21T23:10:44.173Z,19.13
2019-02-21T23:13:15.716Z,19.70
2019-02-21T23:15:44.323Z,19.10
2019-02-21T23:18:12.950Z,20.07
2019-02-21T23:20:41.563Z,19.87
2019-02-21T23:23:10.163Z,20.23
2019-02-21T23:25:39.859Z,20.37
2019-02-21T23:28:11.082Z,20.93
2019-02-21T23:30:40.020Z,20.13
2019-02-21T23:33:09.580Z,20.37
2019-02-21T23:35:38.158Z,21.17
2019-02-21T23:38:06.702Z,20.77
2019-02-21T23:40:37.984Z,19.93
2019-02-21T23:43:06.517Z,21.00
2019-02-21T23:45:35.050Z,20.97
2019-02-21T23:48:06.113Z,20.97
2019-02-21T23:50:36.741Z,20.73
2019-02-21T23:53:05.306Z,19.87
2019-02-21T23:55:33.841Z,21.43
2019-02-21T23:58:02.356Z,20.23
